createdAt,value
2023-05-02T00:07:57.971Z,0.00
2023-05-02T00:19:58.623Z,0.00
2023-05-02T00:31:58.872Z,0.00
2023-05-02T00:43:59.318Z,0.00
2023-05-02T00:55:59.794Z,0.00
2023-05-02T01:08:00.234Z,0.00
2023-05-02T01:20:00.997Z,0.00
2023-05-02T01:32:01.158Z,0.00
2023-05-02T01:44:01.636Z,0.00
2023-05-02T01:56:02.071Z,0.00
2023-05-02T02:08:02.536Z,0.00
2023-05-02T02:20:03.006Z,0.00
2023-05-02T02:32:03.463Z,0.00
2023-05-02T02:44:03.851Z,0.00
2023-05-02T02:56:04.335Z,0.23
2023-05-02T03:08:04.784Z,0.00
2023-05-02T03:20:05.232Z,0.00
2023-05-02T03:32:05.709Z,0.00
2023-05-02T03:44:06.117Z,0.00
2023-05-02T03:56:06.566Z,0.00
2023-05-02T04:08:07.029Z,0.13
2023-05-02T04:20:07.790Z,0.00
2023-05-02T04:32:07.941Z,0.00
2023-05-02T04:44:08.379Z,0.29
2023-05-02T04:56:08.854Z,0.50
2023-05-02T05:08:09.320Z,0.33
2023-05-02T05:20:09.736Z,0.08
2023-05-02T05:32:10.340Z,0.32
2023-05-02T05:44:10.684Z,0.05
2023-05-02T05:56:11.098Z,0.04
2023-05-02T06:08:11.561Z,0.16
2023-05-02T06:20:12.099Z,0.00
2023-05-02T06:32:12.494Z,0.37
2023-05-02T06:44:12.900Z,0.54
2023-05-02T06:56:13.368Z,0.28
2023-05-02T07:08:13.852Z,1.27
2023-05-02T07:20:14.307Z,1.72
2023-05-02T07:32:14.773Z,1.21
2023-05-02T07:44:15.203Z,1.61
2023-05-02T07:56:15.605Z,0.51
2023-05-02T08:08:16.115Z,2.08
2023-05-02T08:20:16.545Z,1.53
2023-05-02T08:32:17.106Z,1.28
2023-05-02T08:44:17.462Z,2.25
2023-05-02T08:56:17.922Z,1.92
2023-05-02T09:08:18.440Z,3.75
2023-05-02T09:20:18.842Z,2.40
2023-05-02T09:32:19.472Z,3.98
2023-05-02T09:44:19.757Z,2.60
2023-05-02T09:56:20.202Z,2.09
2023-05-02T10:08:20.607Z,2.52
2023-05-02T10:20:21.108Z,2.15
2023-05-02T10:32:21.547Z,2.83
2023-05-02T10:44:21.992Z,2.36
2023-05-02T10:56:22.460Z,1.73
2023-05-02T11:08:23.458Z,1.95
2023-05-02T11:20:23.378Z,1.79
2023-05-02T11:32:23.865Z,1.27
2023-05-02T11:44:24.286Z,1.53
2023-05-02T11:56:24.699Z,1.34
2023-05-02T12:08:25.222Z,1.16
2023-05-02T12:20:25.651Z,1.85
2023-05-02T12:32:27.646Z,1.52
2023-05-02T12:44:26.532Z,1.98
2023-05-02T12:56:27.034Z,2.25
2023-05-02T13:08:27.441Z,2.62
2023-05-02T13:20:27.909Z,2.24
2023-05-02T13:32:28.367Z,3.46
2023-05-02T13:44:28.859Z,2.09
2023-05-02T13:56:29.248Z,3.49
2023-05-02T14:08:29.755Z,3.21
2023-05-02T14:20:30.146Z,2.47
2023-05-02T14:32:30.660Z,2.14
2023-05-02T14:44:31.097Z,1.55
2023-05-02T14:56:31.536Z,4.62
2023-05-02T15:08:31.982Z,1.46
2023-05-02T15:20:32.443Z,2.58
2023-05-02T15:32:32.939Z,3.35
2023-05-02T15:44:33.348Z,2.05
2023-05-02T15:56:33.784Z,1.59
2023-05-02T16:08:34.286Z,1.29
2023-05-02T16:20:34.734Z,1.44
2023-05-02T16:32:35.183Z,0.85
2023-05-02T16:44:35.636Z,0.85
2023-05-02T16:56:36.113Z,0.68
2023-05-02T17:08:36.525Z,0.31
2023-05-02T17:20:36.964Z,0.88
2023-05-02T17:32:37.534Z,0.72
2023-05-02T17:44:37.914Z,0.44
2023-05-02T17:56:38.365Z,0.56
2023-05-02T18:08:38.788Z,0.31
2023-05-02T18:20:39.263Z,0.07
2023-05-02T18:32:39.752Z,0.29
2023-05-02T18:44:40.176Z,0.50
2023-05-02T18:56:40.761Z,0.73
2023-05-02T19:08:41.054Z,0.88
2023-05-02T19:20:41.537Z,0.26
2023-05-02T19:32:42.023Z,0.36
2023-05-02T19:44:42.413Z,0.04
2023-05-02T19:56:42.849Z,0.47
2023-05-02T20:08:43.344Z,0.36
2023-05-02T20:20:43.767Z,0.55
2023-05-02T20:32:44.240Z,0.66
2023-05-02T20:44:44.694Z,0.78
2023-05-02T20:56:45.163Z,0.16
2023-05-02T21:08:45.609Z,0.44
2023-05-02T21:20:46.039Z,0.76
2023-05-02T21:32:46.527Z,0.07
2023-05-02T21:44:46.995Z,0.63
2023-05-02T21:56:47.388Z,0.15
2023-05-02T22:08:47.881Z,0.51
2023-05-02T22:20:48.304Z,0.21
2023-05-02T22:32:48.835Z,0.72
2023-05-02T22:44:53.990Z,0.25
2023-05-02T22:56:49.664Z,0.69
2023-05-02T23:08:50.119Z,0.17
2023-05-02T23:20:50.609Z,0.71
2023-05-02T23:32:51.034Z,0.37
2023-05-02T23:44:51.473Z,0.46
2023-05-02T23:56:51.913Z,0.00
